sensor_id;sensor_type;location;lat;lon;timestamp;P1;durP1;ratioP1;P2;durP2;ratioP2
62832;SDS011;48891;49.220;6.920;2022-10-26T00:02:17;3.83;;;2.38;;
62832;SDS011;48891;49.220;6.920;2022-10-26T00:04:43;3.08;;;1.80;;
62832;SDS011;48891;49.220;6.920;2022-10-26T00:07:08;2.90;;;2.17;;
62832;SDS011;48891;49.220;6.920;2022-10-26T00:09:34;3.78;;;2.20;;
62832;SDS011;48891;49.220;6.920;2022-10-26T00:11:59;3.10;;;2.20;;
62832;SDS011;48891;49.220;6.920;2022-10-26T00:14:25;3.90;;;2.17;;
62832;SDS011;48891;49.220;6.920;2022-10-26T00:16:50;5.72;;;2.20;;
62832;SDS011;48891;49.220;6.920;2022-10-26T00:19:15;5.03;;;2.20;;
62832;SDS011;48891;49.220;6.920;2022-10-26T00:21:40;4.33;;;2.20;;
62832;SDS011;48891;49.220;6.920;2022-10-26T00:24:06;3.20;;;2.03;;
62832;SDS011;48891;49.220;6.920;2022-10-26T00:26:31;3.15;;;1.90;;
62832;SDS011;48891;49.220;6.920;2022-10-26T00:28:56;3.60;;;2.40;;
62832;SDS011;48891;49.220;6.920;2022-10-26T00:31:22;3.27;;;2.13;;
62832;SDS011;48891;49.220;6.920;2022-10-26T00:33:50;3.72;;;2.10;;
62832;SDS011;48891;49.220;6.920;2022-10-26T00:36:16;3.92;;;2.10;;
62832;SDS011;48891;49.220;6.920;2022-10-26T00:38:41;3.28;;;2.00;;
62832;SDS011;48891;49.220;6.920;2022-10-26T00:41:06;4.40;;;2.43;;
62832;SDS011;48891;49.220;6.920;2022-10-26T00:43:33;4.03;;;2.00;;
62832;SDS011;48891;49.220;6.920;2022-10-26T00:45:59;3.83;;;2.10;;
62832;SDS011;48891;49.220;6.920;2022-10-26T00:48:33;3.53;;;2.20;;
62832;SDS011;48891;49.220;6.920;2022-10-26T00:51:02;3.70;;;2.17;;
62832;SDS011;48891;49.220;6.920;2022-10-26T00:53:49;4.70;;;2.50;;
62832;SDS011;48891;49.220;6.920;2022-10-26T00:56:15;4.00;;;2.10;;
62832;SDS011;48891;49.220;6.920;2022-10-26T00:58:42;3.03;;;2.05;;
62832;SDS011;48891;49.220;6.920;2022-10-26T01:01:08;2.60;;;1.90;;
62832;SDS011;48891;49.220;6.920;2022-10-26T01:03:33;2.97;;;2.10;;
62832;SDS011;48891;49.220;6.920;2022-10-26T01:05:59;3.03;;;2.00;;
62832;SDS011;48891;49.220;6.920;2022-10-26T01:08:27;3.10;;;2.27;;
62832;SDS011;48891;49.220;6.920;2022-10-26T01:10:53;3.17;;;2.05;;
62832;SDS011;48891;49.220;6.920;2022-10-26T01:13:21;3.05;;;2.00;;
62832;SDS011;48891;49.220;6.920;2022-10-26T01:24:03;4.13;;;2.28;;
62832;SDS011;48891;49.220;6.920;2022-10-26T01:32:15;3.55;;;1.90;;
62832;SDS011;48891;49.220;6.920;2022-10-26T01:34:52;2.60;;;1.83;;
62832;SDS011;48891;49.220;6.920;2022-10-26T01:37:26;3.08;;;1.90;;
62832;SDS011;48891;49.220;6.920;2022-10-26T01:39:59;3.85;;;2.17;;
62832;SDS011;48891;49.220;6.920;2022-10-26T01:42:41;3.75;;;2.10;;
62832;SDS011;48891;49.220;6.920;2022-10-26T01:45:11;3.15;;;2.08;;
62832;SDS011;48891;49.220;6.920;2022-10-26T01:47:39;3.03;;;2.10;;
62832;SDS011;48891;49.220;6.920;2022-10-26T01:50:05;3.30;;;2.10;;
62832;SDS011;48891;49.220;6.920;2022-10-26T01:52:32;1.98;;;1.75;;
62832;SDS011;48891;49.220;6.920;2022-10-26T01:55:03;3.45;;;2.00;;
62832;SDS011;48891;49.220;6.920;2022-10-26T01:57:31;4.78;;;2.45;;
62832;SDS011;48891;49.220;6.920;2022-10-26T02:00:04;3.72;;;2.20;;
62832;SDS011;48891;49.220;6.920;2022-10-26T02:04:59;2.70;;;2.07;;
62832;SDS011;48891;49.220;6.920;2022-10-26T02:12:40;3.43;;;1.83;;
62832;SDS011;48891;49.220;6.920;2022-10-26T02:15:26;3.15;;;1.98;;
62832;SDS011;48891;49.220;6.920;2022-10-26T02:18:27;3.00;;;2.15;;
62832;SDS011;48891;49.220;6.920;2022-10-26T02:20:57;5.55;;;2.20;;
62832;SDS011;48891;49.220;6.920;2022-10-26T02:23:27;3.80;;;2.10;;
62832;SDS011;48891;49.220;6.920;2022-10-26T02:25:56;3.58;;;2.00;;
62832;SDS011;48891;49.220;6.920;2022-10-26T02:28:25;3.63;;;1.80;;
62832;SDS011;48891;49.220;6.920;2022-10-26T02:30:55;3.50;;;2.00;;
62832;SDS011;48891;49.220;6.920;2022-10-26T02:33:23;2.80;;;2.03;;
62832;SDS011;48891;49.220;6.920;2022-10-26T02:35:52;3.28;;;2.20;;
62832;SDS011;48891;49.220;6.920;2022-10-26T02:38:19;6.57;;;3.08;;
62832;SDS011;48891;49.220;6.920;2022-10-26T02:40:45;7.65;;;3.50;;
62832;SDS011;48891;49.220;6.920;2022-10-26T02:43:13;7.55;;;3.38;;
62832;SDS011;48891;49.220;6.920;2022-10-26T02:45:45;6.03;;;3.20;;
62832;SDS011;48891;49.220;6.920;2022-10-26T02:48:15;4.68;;;2.80;;
62832;SDS011;48891;49.220;6.920;2022-10-26T02:50:55;5.10;;;3.00;;
62832;SDS011;48891;49.220;6.920;2022-10-26T02:53:26;4.70;;;2.60;;
62832;SDS011;48891;49.220;6.920;2022-10-26T02:55:56;3.60;;;2.40;;
62832;SDS011;48891;49.220;6.920;2022-10-26T02:58:29;5.22;;;2.20;;
62832;SDS011;48891;49.220;6.920;2022-10-26T03:00:57;4.25;;;2.30;;
62832;SDS011;48891;49.220;6.920;2022-10-26T03:03:23;3.70;;;2.30;;
62832;SDS011;48891;49.220;6.920;2022-10-26T03:05:48;3.90;;;2.15;;
62832;SDS011;48891;49.220;6.920;2022-10-26T03:08:13;6.10;;;1.90;;
62832;SDS011;48891;49.220;6.920;2022-10-26T03:10:40;3.88;;;2.10;;
62832;SDS011;48891;49.220;6.920;2022-10-26T03:13:10;3.83;;;2.55;;
62832;SDS011;48891;49.220;6.920;2022-10-26T03:15:36;3.05;;;1.90;;
62832;SDS011;48891;49.220;6.920;2022-10-26T03:18:01;2.25;;;1.80;;
62832;SDS011;48891;49.220;6.920;2022-10-26T03:20:27;1.98;;;1.73;;
62832;SDS011;48891;49.220;6.920;2022-10-26T03:22:52;2.38;;;1.77;;
62832;SDS011;48891;49.220;6.920;2022-10-26T03:25:17;3.65;;;2.10;;
62832;SDS011;48891;49.220;6.920;2022-10-26T03:27:42;3.92;;;2.08;;
62832;SDS011;48891;49.220;6.920;2022-10-26T03:30:08;2.58;;;2.00;;
62832;SDS011;48891;49.220;6.920;2022-10-26T03:32:33;4.43;;;2.00;;
62832;SDS011;48891;49.220;6.920;2022-10-26T03:34:59;4.00;;;2.00;;
62832;SDS011;48891;49.220;6.920;2022-10-26T03:37:24;3.30;;;2.17;;
62832;SDS011;48891;49.220;6.920;2022-10-26T03:39:49;3.40;;;2.00;;
62832;SDS011;48891;49.220;6.920;2022-10-26T03:42:15;2.70;;;2.00;;
62832;SDS011;48891;49.220;6.920;2022-10-26T03:44:40;2.95;;;1.80;;
62832;SDS011;48891;49.220;6.920;2022-10-26T03:47:05;3.72;;;2.20;;
62832;SDS011;48891;49.220;6.920;2022-10-26T03:49:30;2.20;;;1.80;;
62832;SDS011;48891;49.220;6.920;2022-10-26T03:51:56;1.93;;;1.77;;
62832;SDS011;48891;49.220;6.920;2022-10-26T03:54:21;2.90;;;1.90;;
62832;SDS011;48891;49.220;6.920;2022-10-26T03:56:46;3.00;;;1.80;;
62832;SDS011;48891;49.220;6.920;2022-10-26T03:59:11;2.80;;;1.93;;
62832;SDS011;48891;49.220;6.920;2022-10-26T04:01:36;3.07;;;1.97;;
62832;SDS011;48891;49.220;6.920;2022-10-26T04:04:02;2.77;;;1.90;;
62832;SDS011;48891;49.220;6.920;2022-10-26T04:06:27;3.08;;;1.92;;
62832;SDS011;48891;49.220;6.920;2022-10-26T04:08:52;3.07;;;1.80;;
62832;SDS011;48891;49.220;6.920;2022-10-26T04:11:17;5.30;;;2.20;;
62832;SDS011;48891;49.220;6.920;2022-10-26T04:13:42;2.23;;;1.80;;
62832;SDS011;48891;49.220;6.920;2022-10-26T04:16:08;2.77;;;1.87;;
62832;SDS011;48891;49.220;6.920;2022-10-26T04:18:33;2.30;;;1.73;;
62832;SDS011;48891;49.220;6.920;2022-10-26T04:21:01;2.97;;;2.10;;
62832;SDS011;48891;49.220;6.920;2022-10-26T04:23:26;3.17;;;2.10;;
62832;SDS011;48891;49.220;6.920;2022-10-26T04:25:52;3.47;;;2.10;;
62832;SDS011;48891;49.220;6.920;2022-10-26T04:28:17;2.93;;;1.80;;
62832;SDS011;48891;49.220;6.920;2022-10-26T04:30:42;3.47;;;2.13;;
62832;SDS011;48891;49.220;6.920;2022-10-26T04:33:07;3.33;;;1.97;;
62832;SDS011;48891;49.220;6.920;2022-10-26T04:35:33;2.83;;;2.00;;
62832;SDS011;48891;49.220;6.920;2022-10-26T04:37:59;2.75;;;2.00;;
62832;SDS011;48891;49.220;6.920;2022-10-26T04:40:26;3.25;;;2.30;;
62832;SDS011;48891;49.220;6.920;2022-10-26T04:42:52;3.55;;;2.03;;
62832;SDS011;48891;49.220;6.920;2022-10-26T04:45:17;3.90;;;2.50;;
62832;SDS011;48891;49.220;6.920;2022-10-26T04:47:43;2.90;;;2.05;;
62832;SDS011;48891;49.220;6.920;2022-10-26T04:50:09;3.37;;;2.00;;
62832;SDS011;48891;49.220;6.920;2022-10-26T04:52:35;3.85;;;1.90;;
62832;SDS011;48891;49.220;6.920;2022-10-26T04:55:01;3.05;;;1.80;;
62832;SDS011;48891;49.220;6.920;2022-10-26T04:57:27;2.92;;;2.10;;
62832;SDS011;48891;49.220;6.920;2022-10-26T04:59:52;3.87;;;2.20;;
62832;SDS011;48891;49.220;6.920;2022-10-26T05:02:17;4.23;;;2.00;;
62832;SDS011;48891;49.220;6.920;2022-10-26T05:04:43;3.38;;;1.90;;
62832;SDS011;48891;49.220;6.920;2022-10-26T05:07:08;3.10;;;1.95;;
62832;SDS011;48891;49.220;6.920;2022-10-26T05:09:33;2.57;;;2.00;;
62832;SDS011;48891;49.220;6.920;2022-10-26T05:11:58;2.67;;;1.93;;
62832;SDS011;48891;49.220;6.920;2022-10-26T05:14:24;2.47;;;1.77;;
62832;SDS011;48891;49.220;6.920;2022-10-26T05:16:49;2.70;;;1.83;;
62832;SDS011;48891;49.220;6.920;2022-10-26T05:19:15;3.17;;;2.13;;
62832;SDS011;48891;49.220;6.920;2022-10-26T05:21:40;2.78;;;2.03;;
62832;SDS011;48891;49.220;6.920;2022-10-26T05:24:06;2.95;;;2.08;;
62832;SDS011;48891;49.220;6.920;2022-10-26T05:26:31;2.30;;;1.80;;
62832;SDS011;48891;49.220;6.920;2022-10-26T05:28:56;2.43;;;1.80;;
62832;SDS011;48891;49.220;6.920;2022-10-26T05:31:21;2.53;;;1.90;;
62832;SDS011;48891;49.220;6.920;2022-10-26T05:33:47;2.95;;;1.80;;
62832;SDS011;48891;49.220;6.920;2022-10-26T05:36:13;4.07;;;2.03;;
62832;SDS011;48891;49.220;6.920;2022-10-26T05:38:38;2.97;;;2.00;;
62832;SDS011;48891;49.220;6.920;2022-10-26T05:41:04;3.97;;;2.13;;
62832;SDS011;48891;49.220;6.920;2022-10-26T05:43:29;2.75;;;1.90;;
62832;SDS011;48891;49.220;6.920;2022-10-26T05:45:54;3.50;;;1.97;;
62832;SDS011;48891;49.220;6.920;2022-10-26T05:48:19;2.72;;;1.80;;
62832;SDS011;48891;49.220;6.920;2022-10-26T05:50:45;3.05;;;1.80;;
62832;SDS011;48891;49.220;6.920;2022-10-26T05:53:10;4.07;;;2.03;;
62832;SDS011;48891;49.220;6.920;2022-10-26T05:55:35;3.33;;;1.80;;
62832;SDS011;48891;49.220;6.920;2022-10-26T05:58:01;4.88;;;2.05;;
62832;SDS011;48891;49.220;6.920;2022-10-26T06:00:27;2.78;;;1.88;;
62832;SDS011;48891;49.220;6.920;2022-10-26T06:05:54;2.17;;;1.88;;
62832;SDS011;48891;49.220;6.920;2022-10-26T06:08:22;3.83;;;2.00;;
62832;SDS011;48891;49.220;6.920;2022-10-26T06:10:49;2.25;;;1.70;;
62832;SDS011;48891;49.220;6.920;2022-10-26T06:13:15;3.03;;;2.17;;
62832;SDS011;48891;49.220;6.920;2022-10-26T06:18:17;4.22;;;2.10;;
62832;SDS011;48891;49.220;6.920;2022-10-26T06:26:57;3.22;;;2.03;;
62832;SDS011;48891;49.220;6.920;2022-10-26T06:32:02;3.85;;;2.40;;
62832;SDS011;48891;49.220;6.920;2022-10-26T06:34:30;3.53;;;1.83;;
62832;SDS011;48891;49.220;6.920;2022-10-26T06:36:59;2.85;;;2.10;;
62832;SDS011;48891;49.220;6.920;2022-10-26T06:39:26;3.05;;;1.90;;
62832;SDS011;48891;49.220;6.920;2022-10-26T06:41:54;2.55;;;1.88;;
62832;SDS011;48891;49.220;6.920;2022-10-26T06:44:21;2.78;;;1.80;;
62832;SDS011;48891;49.220;6.920;2022-10-26T06:46:47;4.25;;;2.20;;
62832;SDS011;48891;49.220;6.920;2022-10-26T06:54:49;3.03;;;2.00;;
62832;SDS011;48891;49.220;6.920;2022-10-26T06:57:17;3.42;;;2.05;;
62832;SDS011;48891;49.220;6.920;2022-10-26T07:02:17;3.45;;;2.08;;
62832;SDS011;48891;49.220;6.920;2022-10-26T07:04:42;3.67;;;2.08;;
62832;SDS011;48891;49.220;6.920;2022-10-26T07:07:08;3.40;;;1.70;;
62832;SDS011;48891;49.220;6.920;2022-10-26T07:09:36;3.97;;;1.90;;
62832;SDS011;48891;49.220;6.920;2022-10-26T07:12:01;3.85;;;2.08;;
62832;SDS011;48891;49.220;6.920;2022-10-26T07:14:26;2.78;;;1.77;;
62832;SDS011;48891;49.220;6.920;2022-10-26T07:16:52;2.80;;;1.77;;
62832;SDS011;48891;49.220;6.920;2022-10-26T07:19:17;3.78;;;2.08;;
62832;SDS011;48891;49.220;6.920;2022-10-26T07:21:42;3.22;;;1.80;;
62832;SDS011;48891;49.220;6.920;2022-10-26T07:24:07;2.43;;;1.70;;
62832;SDS011;48891;49.220;6.920;2022-10-26T07:26:33;2.53;;;1.80;;
62832;SDS011;48891;49.220;6.920;2022-10-26T07:28:58;3.55;;;1.73;;
62832;SDS011;48891;49.220;6.920;2022-10-26T07:31:23;2.97;;;2.00;;
62832;SDS011;48891;49.220;6.920;2022-10-26T07:33:48;3.33;;;2.03;;
62832;SDS011;48891;49.220;6.920;2022-10-26T07:36:13;2.95;;;1.80;;
62832;SDS011;48891;49.220;6.920;2022-10-26T07:38:39;2.22;;;1.75;;
62832;SDS011;48891;49.220;6.920;2022-10-26T07:41:04;3.37;;;2.00;;
62832;SDS011;48891;49.220;6.920;2022-10-26T07:43:29;3.50;;;2.10;;
62832;SDS011;48891;49.220;6.920;2022-10-26T07:45:55;2.97;;;2.03;;
62832;SDS011;48891;49.220;6.920;2022-10-26T07:48:20;3.80;;;1.90;;
62832;SDS011;48891;49.220;6.920;2022-10-26T07:50:45;2.73;;;2.00;;
62832;SDS011;48891;49.220;6.920;2022-10-26T07:53:10;3.45;;;1.92;;
62832;SDS011;48891;49.220;6.920;2022-10-26T07:55:36;2.75;;;1.90;;
62832;SDS011;48891;49.220;6.920;2022-10-26T07:58:01;3.15;;;1.83;;
62832;SDS011;48891;49.220;6.920;2022-10-26T08:00:26;3.92;;;2.05;;
62832;SDS011;48891;49.220;6.920;2022-10-26T08:02:51;4.45;;;2.15;;
62832;SDS011;48891;49.220;6.920;2022-10-26T08:05:17;2.50;;;1.85;;
62832;SDS011;48891;49.220;6.920;2022-10-26T08:07:43;3.38;;;2.00;;
62832;SDS011;48891;49.220;6.920;2022-10-26T08:10:09;2.65;;;1.80;;
62832;SDS011;48891;49.220;6.920;2022-10-26T08:12:35;3.75;;;2.00;;
62832;SDS011;48891;49.220;6.920;2022-10-26T08:15:01;3.20;;;2.10;;
62832;SDS011;48891;49.220;6.920;2022-10-26T08:17:27;3.10;;;1.85;;
62832;SDS011;48891;49.220;6.920;2022-10-26T08:19:52;4.15;;;2.17;;
62832;SDS011;48891;49.220;6.920;2022-10-26T08:22:18;3.23;;;2.00;;
62832;SDS011;48891;49.220;6.920;2022-10-26T08:24:43;3.42;;;2.00;;
62832;SDS011;48891;49.220;6.920;2022-10-26T08:27:08;2.67;;;2.00;;
62832;SDS011;48891;49.220;6.920;2022-10-26T08:29:33;3.70;;;1.80;;
62832;SDS011;48891;49.220;6.920;2022-10-26T08:31:59;2.27;;;1.90;;
62832;SDS011;48891;49.220;6.920;2022-10-26T08:34:24;3.87;;;2.20;;
62832;SDS011;48891;49.220;6.920;2022-10-26T08:36:49;3.88;;;1.88;;
62832;SDS011;48891;49.220;6.920;2022-10-26T08:39:14;4.15;;;2.28;;
62832;SDS011;48891;49.220;6.920;2022-10-26T08:41:41;3.67;;;1.90;;
62832;SDS011;48891;49.220;6.920;2022-10-26T08:44:16;3.53;;;2.10;;
62832;SDS011;48891;49.220;6.920;2022-10-26T08:46:49;3.97;;;2.00;;
62832;SDS011;48891;49.220;6.920;2022-10-26T08:49:21;4.57;;;2.40;;
62832;SDS011;48891;49.220;6.920;2022-10-26T08:51:50;5.03;;;2.03;;
62832;SDS011;48891;49.220;6.920;2022-10-26T08:54:26;5.65;;;2.20;;
62832;SDS011;48891;49.220;6.920;2022-10-26T08:56:58;3.67;;;2.30;;
62832;SDS011;48891;49.220;6.920;2022-10-26T08:59:32;4.60;;;2.60;;
62832;SDS011;48891;49.220;6.920;2022-10-26T09:02:02;6.28;;;2.55;;
62832;SDS011;48891;49.220;6.920;2022-10-26T09:04:28;3.80;;;2.38;;
62832;SDS011;48891;49.220;6.920;2022-10-26T09:09:34;4.38;;;2.50;;
62832;SDS011;48891;49.220;6.920;2022-10-26T09:12:14;3.75;;;2.00;;
62832;SDS011;48891;49.220;6.920;2022-10-26T09:25:41;3.10;;;2.03;;
62832;SDS011;48891;49.220;6.920;2022-10-26T09:28:10;3.60;;;2.30;;
62832;SDS011;48891;49.220;6.920;2022-10-26T09:30:42;3.22;;;2.03;;
62832;SDS011;48891;49.220;6.920;2022-10-26T09:33:11;2.78;;;1.90;;
62832;SDS011;48891;49.220;6.920;2022-10-26T09:35:59;3.90;;;2.00;;
62832;SDS011;48891;49.220;6.920;2022-10-26T09:40:55;5.72;;;2.08;;
62832;SDS011;48891;49.220;6.920;2022-10-26T09:43:27;2.85;;;2.15;;
62832;SDS011;48891;49.220;6.920;2022-10-26T09:45:57;3.38;;;2.00;;
62832;SDS011;48891;49.220;6.920;2022-10-26T09:48:55;3.37;;;1.80;;
62832;SDS011;48891;49.220;6.920;2022-10-26T09:51:17;3.20;;;2.20;;
62832;SDS011;48891;49.220;6.920;2022-10-26T09:53:43;4.47;;;2.10;;
62832;SDS011;48891;49.220;6.920;2022-10-26T09:56:09;3.72;;;2.05;;
62832;SDS011;48891;49.220;6.920;2022-10-26T09:58:55;2.75;;;1.90;;
62832;SDS011;48891;49.220;6.920;2022-10-26T10:01:31;2.70;;;1.77;;
62832;SDS011;48891;49.220;6.920;2022-10-26T10:06:38;11.75;;;4.10;;
62832;SDS011;48891;49.220;6.920;2022-10-26T10:09:05;10.57;;;3.92;;
62832;SDS011;48891;49.220;6.920;2022-10-26T10:14:08;11.77;;;4.80;;
62832;SDS011;48891;49.220;6.920;2022-10-26T10:16:39;11.50;;;4.55;;
62832;SDS011;48891;49.220;6.920;2022-10-26T10:19:09;14.65;;;5.30;;
62832;SDS011;48891;49.220;6.920;2022-10-26T10:21:47;10.15;;;3.80;;
62832;SDS011;48891;49.220;6.920;2022-10-26T10:24:24;9.75;;;4.13;;
62832;SDS011;48891;49.220;6.920;2022-10-26T10:27:00;9.32;;;4.07;;
62832;SDS011;48891;49.220;6.920;2022-10-26T10:29:31;9.95;;;4.10;;
62832;SDS011;48891;49.220;6.920;2022-10-26T10:31:58;10.20;;;4.83;;
62832;SDS011;48891;49.220;6.920;2022-10-26T10:34:25;11.85;;;4.57;;
62832;SDS011;48891;49.220;6.920;2022-10-26T10:36:51;12.60;;;4.57;;
62832;SDS011;48891;49.220;6.920;2022-10-26T10:41:55;8.10;;;4.57;;
62832;SDS011;48891;49.220;6.920;2022-10-26T10:44:25;11.57;;;5.13;;
62832;SDS011;48891;49.220;6.920;2022-10-26T10:47:03;12.10;;;4.93;;
62832;SDS011;48891;49.220;6.920;2022-10-26T10:49:29;11.73;;;4.90;;
62832;SDS011;48891;49.220;6.920;2022-10-26T10:51:56;12.20;;;4.63;;
62832;SDS011;48891;49.220;6.920;2022-10-26T10:54:31;14.05;;;5.00;;
62832;SDS011;48891;49.220;6.920;2022-10-26T10:57:10;14.20;;;4.95;;
62832;SDS011;48891;49.220;6.920;2022-10-26T11:11:31;11.32;;;4.78;;
62832;SDS011;48891;49.220;6.920;2022-10-26T11:14:02;9.68;;;4.28;;
62832;SDS011;48891;49.220;6.920;2022-10-26T11:16:35;9.80;;;4.05;;
62832;SDS011;48891;49.220;6.920;2022-10-26T11:19:04;10.40;;;4.22;;
62832;SDS011;48891;49.220;6.920;2022-10-26T11:21:39;8.27;;;3.70;;
62832;SDS011;48891;49.220;6.920;2022-10-26T11:24:17;8.98;;;4.13;;
62832;SDS011;48891;49.220;6.920;2022-10-26T11:29:41;8.52;;;3.78;;
62832;SDS011;48891;49.220;6.920;2022-10-26T11:38:02;7.95;;;3.40;;
62832;SDS011;48891;49.220;6.920;2022-10-26T11:40:46;10.02;;;3.85;;
62832;SDS011;48891;49.220;6.920;2022-10-26T11:43:36;9.70;;;3.95;;
62832;SDS011;48891;49.220;6.920;2022-10-26T11:48:47;7.47;;;3.45;;
62832;SDS011;48891;49.220;6.920;2022-10-26T11:54:06;8.77;;;3.47;;
62832;SDS011;48891;49.220;6.920;2022-10-26T11:56:37;7.55;;;3.55;;
62832;SDS011;48891;49.220;6.920;2022-10-26T11:59:17;6.68;;;3.40;;
62832;SDS011;48891;49.220;6.920;2022-10-26T12:01:46;7.85;;;3.22;;
62832;SDS011;48891;49.220;6.920;2022-10-26T12:04:15;7.45;;;3.50;;
62832;SDS011;48891;49.220;6.920;2022-10-26T12:06:42;6.90;;;3.60;;
62832;SDS011;48891;49.220;6.920;2022-10-26T12:09:11;7.05;;;3.30;;
62832;SDS011;48891;49.220;6.920;2022-10-26T12:12:01;6.75;;;3.30;;
62832;SDS011;48891;49.220;6.920;2022-10-26T12:14:32;10.70;;;3.30;;
62832;SDS011;48891;49.220;6.920;2022-10-26T12:22:17;7.70;;;2.95;;
62832;SDS011;48891;49.220;6.920;2022-10-26T12:24:45;6.93;;;3.50;;
62832;SDS011;48891;49.220;6.920;2022-10-26T12:27:50;6.03;;;2.85;;
62832;SDS011;48891;49.220;6.920;2022-10-26T12:40:45;5.68;;;2.75;;
62832;SDS011;48891;49.220;6.920;2022-10-26T12:43:31;6.40;;;2.88;;
62832;SDS011;48891;49.220;6.920;2022-10-26T12:46:42;6.40;;;3.08;;
62832;SDS011;48891;49.220;6.920;2022-10-26T12:48:49;7.85;;;2.80;;
62832;SDS011;48891;49.220;6.920;2022-10-26T12:59:21;5.93;;;2.53;;
62832;SDS011;48891;49.220;6.920;2022-10-26T13:04:49;7.82;;;2.95;;
62832;SDS011;48891;49.220;6.920;2022-10-26T13:07:22;5.85;;;2.47;;
62832;SDS011;48891;49.220;6.920;2022-10-26T13:09:54;5.80;;;2.25;;
62832;SDS011;48891;49.220;6.920;2022-10-26T13:12:20;4.45;;;2.70;;
62832;SDS011;48891;49.220;6.920;2022-10-26T13:14:59;7.07;;;3.17;;
62832;SDS011;48891;49.220;6.920;2022-10-26T13:17:28;4.97;;;2.55;;
62832;SDS011;48891;49.220;6.920;2022-10-26T13:19:56;4.45;;;2.28;;
62832;SDS011;48891;49.220;6.920;2022-10-26T13:22:24;6.07;;;2.40;;
62832;SDS011;48891;49.220;6.920;2022-10-26T13:27:23;6.00;;;2.33;;
62832;SDS011;48891;49.220;6.920;2022-10-26T13:32:29;8.67;;;4.60;;
62832;SDS011;48891;49.220;6.920;2022-10-26T13:35:16;16.50;;;6.63;;
62832;SDS011;48891;49.220;6.920;2022-10-26T13:40:22;15.63;;;7.47;;
62832;SDS011;48891;49.220;6.920;2022-10-26T13:42:52;17.63;;;7.53;;
62832;SDS011;48891;49.220;6.920;2022-10-26T13:45:20;13.57;;;7.53;;
62832;SDS011;48891;49.220;6.920;2022-10-26T13:50:42;15.40;;;7.50;;
62832;SDS011;48891;49.220;6.920;2022-10-26T13:54:00;14.63;;;7.95;;
62832;SDS011;48891;49.220;6.920;2022-10-26T13:56:08;14.23;;;7.20;;
62832;SDS011;48891;49.220;6.920;2022-10-26T13:58:47;13.90;;;6.72;;
62832;SDS011;48891;49.220;6.920;2022-10-26T14:01:17;17.40;;;7.22;;
62832;SDS011;48891;49.220;6.920;2022-10-26T14:03:48;16.52;;;6.95;;
62832;SDS011;48891;49.220;6.920;2022-10-26T14:08:40;14.68;;;7.35;;
62832;SDS011;48891;49.220;6.920;2022-10-26T14:11:09;15.48;;;6.38;;
62832;SDS011;48891;49.220;6.920;2022-10-26T14:13:37;11.77;;;6.70;;
62832;SDS011;48891;49.220;6.920;2022-10-26T14:16:05;13.50;;;6.47;;
62832;SDS011;48891;49.220;6.920;2022-10-26T14:18:32;13.68;;;6.20;;
62832;SDS011;48891;49.220;6.920;2022-10-26T14:21:11;12.48;;;5.70;;
62832;SDS011;48891;49.220;6.920;2022-10-26T14:28:48;11.60;;;5.70;;
62832;SDS011;48891;49.220;6.920;2022-10-26T14:31:20;10.20;;;5.53;;
62832;SDS011;48891;49.220;6.920;2022-10-26T14:33:48;9.15;;;4.95;;
62832;SDS011;48891;49.220;6.920;2022-10-26T14:36:14;10.23;;;5.32;;
62832;SDS011;48891;49.220;6.920;2022-10-26T14:38:42;10.20;;;5.28;;
62832;SDS011;48891;49.220;6.920;2022-10-26T14:41:10;10.77;;;5.13;;
62832;SDS011;48891;49.220;6.920;2022-10-26T14:43:39;11.50;;;5.00;;
62832;SDS011;48891;49.220;6.920;2022-10-26T14:46:04;9.15;;;4.88;;
62832;SDS011;48891;49.220;6.920;2022-10-26T14:48:31;9.65;;;4.60;;
62832;SDS011;48891;49.220;6.920;2022-10-26T14:53:36;12.48;;;4.55;;
62832;SDS011;48891;49.220;6.920;2022-10-26T14:56:04;8.73;;;3.97;;
62832;SDS011;48891;49.220;6.920;2022-10-26T14:58:41;8.30;;;3.87;;
62832;SDS011;48891;49.220;6.920;2022-10-26T15:01:23;8.02;;;4.32;;
62832;SDS011;48891;49.220;6.920;2022-10-26T15:03:54;7.40;;;3.78;;
62832;SDS011;48891;49.220;6.920;2022-10-26T15:06:42;7.60;;;4.07;;
62832;SDS011;48891;49.220;6.920;2022-10-26T15:12:16;8.10;;;3.70;;
62832;SDS011;48891;49.220;6.920;2022-10-26T15:14:43;7.00;;;3.65;;
62832;SDS011;48891;49.220;6.920;2022-10-26T15:17:17;6.13;;;3.30;;
62832;SDS011;48891;49.220;6.920;2022-10-26T15:19:48;9.60;;;3.53;;
62832;SDS011;48891;49.220;6.920;2022-10-26T15:22:22;6.18;;;3.33;;
62832;SDS011;48891;49.220;6.920;2022-10-26T15:24:51;7.78;;;3.55;;
62832;SDS011;48891;49.220;6.920;2022-10-26T15:27:19;8.07;;;3.25;;
62832;SDS011;48891;49.220;6.920;2022-10-26T15:29:48;7.57;;;3.47;;
62832;SDS011;48891;49.220;6.920;2022-10-26T15:32:17;7.35;;;3.08;;
62832;SDS011;48891;49.220;6.920;2022-10-26T15:34:46;5.05;;;2.70;;
62832;SDS011;48891;49.220;6.920;2022-10-26T15:37:12;7.30;;;3.38;;
62832;SDS011;48891;49.220;6.920;2022-10-26T15:39:38;5.87;;;3.00;;
62832;SDS011;48891;49.220;6.920;2022-10-26T15:42:03;6.43;;;3.13;;
62832;SDS011;48891;49.220;6.920;2022-10-26T15:44:36;8.43;;;3.22;;
62832;SDS011;48891;49.220;6.920;2022-10-26T15:47:02;6.03;;;2.78;;
62832;SDS011;48891;49.220;6.920;2022-10-26T15:49:27;6.22;;;2.92;;
62832;SDS011;48891;49.220;6.920;2022-10-26T15:51:52;5.47;;;2.97;;
62832;SDS011;48891;49.220;6.920;2022-10-26T15:54:17;5.40;;;2.70;;
62832;SDS011;48891;49.220;6.920;2022-10-26T15:56:43;6.22;;;3.33;;
62832;SDS011;48891;49.220;6.920;2022-10-26T15:59:12;4.65;;;2.60;;
62832;SDS011;48891;49.220;6.920;2022-10-26T16:01:39;7.63;;;2.58;;
62832;SDS011;48891;49.220;6.920;2022-10-26T16:04:05;5.88;;;2.78;;
62832;SDS011;48891;49.220;6.920;2022-10-26T16:06:31;6.93;;;2.67;;
62832;SDS011;48891;49.220;6.920;2022-10-26T16:08:59;4.75;;;2.60;;
62832;SDS011;48891;49.220;6.920;2022-10-26T16:11:26;5.15;;;2.50;;
62832;SDS011;48891;49.220;6.920;2022-10-26T16:13:52;5.70;;;2.75;;
62832;SDS011;48891;49.220;6.920;2022-10-26T16:16:18;4.80;;;2.50;;
62832;SDS011;48891;49.220;6.920;2022-10-26T16:18:44;5.57;;;2.75;;
62832;SDS011;48891;49.220;6.920;2022-10-26T16:21:11;5.28;;;2.95;;
62832;SDS011;48891;49.220;6.920;2022-10-26T16:23:37;5.63;;;2.85;;
62832;SDS011;48891;49.220;6.920;2022-10-26T16:26:02;5.85;;;2.97;;
62832;SDS011;48891;49.220;6.920;2022-10-26T16:28:28;5.18;;;2.42;;
62832;SDS011;48891;49.220;6.920;2022-10-26T16:30:57;7.50;;;2.78;;
62832;SDS011;48891;49.220;6.920;2022-10-26T16:33:26;4.75;;;2.60;;
62832;SDS011;48891;49.220;6.920;2022-10-26T16:35:58;5.55;;;2.38;;
62832;SDS011;48891;49.220;6.920;2022-10-26T16:38:24;5.93;;;2.50;;
62832;SDS011;48891;49.220;6.920;2022-10-26T16:40:50;5.80;;;2.30;;
62832;SDS011;48891;49.220;6.920;2022-10-26T16:43:23;3.75;;;2.10;;
62832;SDS011;48891;49.220;6.920;2022-10-26T16:45:49;4.57;;;2.43;;
62832;SDS011;48891;49.220;6.920;2022-10-26T16:48:14;4.55;;;2.45;;
62832;SDS011;48891;49.220;6.920;2022-10-26T16:50:39;5.30;;;2.57;;
62832;SDS011;48891;49.220;6.920;2022-10-26T16:53:04;4.97;;;2.33;;
62832;SDS011;48891;49.220;6.920;2022-10-26T16:55:30;4.95;;;2.00;;
62832;SDS011;48891;49.220;6.920;2022-10-26T16:57:55;4.25;;;2.35;;
62832;SDS011;48891;49.220;6.920;2022-10-26T17:00:20;3.70;;;2.10;;
62832;SDS011;48891;49.220;6.920;2022-10-26T17:02:46;4.20;;;2.30;;
62832;SDS011;48891;49.220;6.920;2022-10-26T17:05:11;4.38;;;2.42;;
62832;SDS011;48891;49.220;6.920;2022-10-26T17:07:36;4.28;;;2.20;;
62832;SDS011;48891;49.220;6.920;2022-10-26T17:10:02;4.03;;;2.40;;
62832;SDS011;48891;49.220;6.920;2022-10-26T17:12:28;3.80;;;2.03;;
62832;SDS011;48891;49.220;6.920;2022-10-26T17:14:53;4.10;;;2.10;;
62832;SDS011;48891;49.220;6.920;2022-10-26T17:17:18;3.20;;;2.10;;
62832;SDS011;48891;49.220;6.920;2022-10-26T17:19:44;4.60;;;2.10;;